Peru, New York
Current Conditions -  °F | °C
As of 9:53 PM on Friday 21 Nov 2014 (Local Time) from KPBG Reporting Station
Few Clouds Few Clouds  
Wind Chill: 10°   Ceiling: Unl
Heat Index: 17°   Visibility: 10mi
Dew Point:   Wind: 5mph
Humidity: 71%   Direction: 180°S
Pressure: 30.35"   Gusts: NA
Location:  44.58°N, 73.55°W
Report Text: KPBG 220253Z AUTO 18004KT 10SM FEW055 M08/M13 A3035 RMK AO2 SLP283 T10831128 58003
Loading
Personal Weather Stations






























Interactive Weather Map New forecast layout! Learn more

10-Day Weather Forecast

Advertisements
Track Severe Weather on mobile